This is the latest recevied weather packets stored in our database for station/object MARKET. If no packets are shown the sender has not sent any weather packets the latest 1 day(s).
| Time | Temp. | Humidity | Pressure | Rain* | Wind** | Luminosity | Snow |
|---|---|---|---|---|---|---|---|
| 1778021245 | 5° C | 82% | 1010.1 hPa | - | 4.92 m/s, 229° | - | - |
| 1778020045 | 5° C | 76% | 1010 hPa | - | 4.02 m/s, 217° | - | - |
| 1778018845 | 5° C | 71% | 1010 hPa | - | 3.13 m/s, 213° | - | - |
| 1778017645 | 5° C | 76% | 1009.9 hPa | - | 3.58 m/s, 213° | - | - |
| 1778016445 | 5° C | 75% | 1009.9 hPa | - | 3.58 m/s, 226° | - | - |
| 1778015244 | 5° C | 77% | 1009.8 hPa | - | 3.13 m/s, 232° | - | - |
| 1778014045 | 5° C | 76% | 1009.5 hPa | - | 4.92 m/s, 219° | - | - |
| 1778012846 | 5° C | 74% | 1009.3 hPa | - | 4.92 m/s, 212° | - | - |
| 1778011644 | 5° C | 71% | 1009.3 hPa | - | 5.36 m/s, 210° | - | - |
| 1778010444 | 5° C | 67% | 1009.1 hPa | - | 5.36 m/s, 202° | - | - |
| 1778009244 | 4.44° C | 69% | 1009.1 hPa | - | 5.36 m/s, 200° | - | - |
| 1778008044 | 5° C | 66% | 1009.5 hPa | - | 5.81 m/s, 249° | - | - |
| 1778006844 | 5° C | 70% | 1008.9 hPa | - | 12.07 m/s, 291° | - | - |
| 1778005644 | 5° C | 81% | 1009 hPa | - | 4.47 m/s, 262° | - | - |
| 1778004444 | 5° C | 81% | 1008.6 hPa | - | 4.47 m/s, 231° | - | - |
| 1778003244 | 5° C | 77% | 1008.5 hPa | - | 4.92 m/s, 219° | - | - |
| 1778002043 | 5° C | 75% | 1008.2 hPa | - | 6.26 m/s, 211° | - | - |
| 1778000843 | 5° C | 72% | 1008.2 hPa | - | 5.81 m/s, 211° | - | - |
| 1777999644 | 5.56° C | 74% | 1008.3 hPa | - | 5.81 m/s, 210° | - | - |
| 1777998444 | 5° C | 73% | 1008.2 hPa | - | 6.26 m/s, 205° | - | - |
| 1777997243 | 5° C | 72% | 1008.2 hPa | - | 5.36 m/s, 204° | - | - |
| 1777996044 | 5.56° C | 72% | 1008.2 hPa | - | 4.02 m/s, 212° | - | - |
| 1777994843 | 5.56° C | 68% | 1008.2 hPa | - | 3.58 m/s, 200° | - | - |
| 1777993643 | 5.56° C | 62% | 1008.3 hPa | - | 1.79 m/s, 188° | - | - |
| 1777992444 | 6.67° C | 60% | 1008 hPa | - | 3.58 m/s, 168° | - | - |
* Rain since midnight (hover to see other rain measurements)
** Current wind speed in m/s (hover to see current wind gust speed)